Wetterdaten: aktuell Freitag, 03.04.2020 00:00
Datum Zeit Temp. A. Feuchte A. Luftdruck Regen Wind Richtung Richtung Sonnenschein Solar Windben
03.04.2020 00:00 2,1 C 71 % 1010,3 hPa 0,0 l/m 0,4 km/h (0 Bft) W 266 0 min 0 W/m 3,2 km/h (1 Bft)
02.04.2020 23:00 1,9 C 72 % 1010,1 hPa 0,0 l/m 1,4 km/h (1 Bft) W-SW 250 0 min 0 W/m 6,4 km/h (2 Bft)
02.04.2020 22:00 2,3 C 72 % 1009,7 hPa 0,0 l/m 0,0 km/h (0 Bft) W 269 0 min 0 W/m 0,0 km/h (0 Bft)
02.04.2020 21:00 3,4 C 68 % 1009,8 hPa 0,0 l/m 0,0 km/h (0 Bft) W 271 0 min 0 W/m 0,0 km/h (0 Bft)
02.04.2020 20:00 4,9 C 63 % 1009,9 hPa 0,0 l/m 0,0 km/h (0 Bft) W 271 0 min 0 W/m 0,0 km/h (0 Bft)
02.04.2020 19:00 7,8 C 53 % 1009,5 hPa 0,0 l/m 0,0 km/h (0 Bft) W 271 0 min 0 W/m 0,0 km/h (0 Bft)
02.04.2020 18:00 10,5 C 44 % 1009,6 hPa 0,0 l/m 3,1 km/h (1 Bft) W-NW 300 0 min 32 W/m 9,7 km/h (2 Bft)
02.04.2020 17:00 11,9 C 39 % 1009,9 hPa 0,0 l/m 4,4 km/h (1 Bft) W 261 45 min 76 W/m 16,1 km/h (3 Bft)
02.04.2020 16:00 12,3 C 37 % 1010,6 hPa 0,0 l/m 6,2 km/h (2 Bft) S-SW 205 60 min 382 W/m 19,3 km/h (3 Bft)
02.04.2020 15:00 12,9 C 37 % 1011,3 hPa 0,0 l/m 5,8 km/h (2 Bft) W 267 60 min 531 W/m 19,3 km/h (3 Bft)
02.04.2020 14:00 11,7 C 41 % 1012,2 hPa 0,0 l/m 5,9 km/h (2 Bft) S 170 60 min 632 W/m 17,7 km/h (3 Bft)
02.04.2020 13:00 11,6 C 40 % 1013,2 hPa 0,0 l/m 8,2 km/h (2 Bft) S 183 60 min 737 W/m 32,2 km/h (5 Bft)
02.04.2020 12:00 10,4 C 46 % 1013,9 hPa 0,0 l/m 5,7 km/h (1 Bft) W-SW 257 60 min 734 W/m 19,3 km/h (3 Bft)
02.04.2020 11:00 9,4 C 48 % 1014,6 hPa 0,0 l/m 5,5 km/h (1 Bft) NW 311 60 min 706 W/m 17,7 km/h (3 Bft)
02.04.2020 10:00 8,1 C 54 % 1015,2 hPa 0,0 l/m 6,0 km/h (2 Bft) W 266 60 min 584 W/m 16,1 km/h (3 Bft)
02.04.2020 09:00 6,0 C 62 % 1015,5 hPa 0,0 l/m 6,1 km/h (2 Bft) NW 316 60 min 447 W/m 14,5 km/h (3 Bft)
02.04.2020 08:00 3,8 C 67 % 1015,9 hPa 0,0 l/m 0,0 km/h (0 Bft) SO 134 30 min 326 W/m 0,0 km/h (0 Bft)
02.04.2020 07:00 -1,1 C 76 % 1016,1 hPa 0,0 l/m 0,0 km/h (0 Bft) SO 135 0 min 82 W/m 0,0 km/h (0 Bft)
02.04.2020 06:00 -2,9 C 79 % 1016,0 hPa 0,0 l/m 0,0 km/h (0 Bft) S-SO 150 0 min 13 W/m 0,0 km/h (0 Bft)
02.04.2020 05:00 -2,9 C 79 % 1016,1 hPa 0,0 l/m 0,0 km/h (0 Bft) S-SO 153 0 min 0 W/m 0,0 km/h (0 Bft)
02.04.2020 04:00 -2,6 C 78 % 1016,4 hPa 0,0 l/m 0,0 km/h (0 Bft) S 173 0 min 0 W/m 0,0 km/h (0 Bft)
02.04.2020 03:00 -2,4 C 77 % 1016,5 hPa 0,0 l/m 0,0 km/h (0 Bft) S 173 0 min 0 W/m 0,0 km/h (0 Bft)
02.04.2020 02:00 -2,1 C 76 % 1016,7 hPa 0,0 l/m 0,8 km/h (0 Bft) S 173 0 min 0 W/m 3,2 km/h (1 Bft)
02.04.2020 01:00 -1,5 C 71 % 1017,0 hPa 0,0 l/m 0,4 km/h (0 Bft) W-SW 248 0 min 0 W/m 3,2 km/h (1 Bft)
_ Min-Zeit 05:45 15:00 18:45 - 02:30 - - - - 02:30
Minimum _ -3,2 C 37 % 1009,5 hPa - 0,0 km/h (0 Bft) - - - - 0,0 km/h (0 Bft)
_ Max-Zeit 14:45 05:45 01:00 01:00 11:15 - - 07:45 12:45 13:00
Maximum _ 13,0 C 82 % 1017,0 hPa 0,0 l/m 9,1 km/h
SW (2 Bft)
- - 15 min 753 W/m 32,2 km/h
W-NW (5 Bft)
Durchschnitt _ 4,8 C 61 % 1013,3 hPa #0,0 l/m 2,5 km/h (1 Bft) W - #0 min. 0 W/m 8,1 km/h (2 Bft)